Terminal Aerodrome Forecast
Issued by NWS

Home | Current Version | Previous Version | Graphics & Text | Print | Product List | Glossary On
Versions: 1 2 3 4 5 6 7 8 9 10 11 12 13 14 15 16 17 18 19 20 21 22 23 24
000
FTUS43 KABR 230400 AAB
TAFATY
TAF AMD
KATY 230455Z 2305/2324 22006KT 3/4SM BR VV001
      TEMPO 2308/2312 1/4SM FG VV001
     FM231500 23005KT P6SM SKC=

USA.gov is the U.S. government's official web portal to all federal, state and local government web resources and services.